Time;durP1;ratioP1;P1;durP2;ratioP2;P2;SDS_P1;SDS_P2;PMS_P1;PMS_P2;Temp;Humidity;BMP_temperature;BMP_pressure;BME280_temperature;BME280_humidity;BME280_pressure;Samples;Min_cycle;Max_cycle;Signal;HPM_P1;HPM_P2
2021/12/03 00:01:16;;;;;;;20.33;14.40;;;1.40;90.90;;;-0.54;94.85;97132.53;5038264;28;20462;-78
2021/12/03 00:03:43;;;;;;;21.20;15.47;;;1.40;90.90;;;-0.25;95.87;97185.13;5037499;28;20460;-78
2021/12/03 00:06:13;;;;;;;21.30;16.47;;;1.40;91.60;;;-0.32;95.44;97165.53;5016930;28;20452;-77
2021/12/03 00:08:41;;;;;;;24.97;16.37;;;1.40;91.50;;;-0.20;96.23;97185.44;4996016;28;20505;-77
2021/12/03 00:11:10;;;;;;;20.80;15.60;;;1.40;92.20;;;-0.06;95.37;97191.09;5014449;28;20866;-77
2021/12/03 00:13:37;;;;;;;22.50;16.40;;;1.50;91.80;;;-0.21;95.66;97193.59;5015780;28;20457;-78
2021/12/03 00:16:06;;;;;;;20.40;15.20;;;1.40;91.50;;;-0.21;95.49;97196.25;5001669;28;20448;-78
2021/12/03 00:18:36;;;;;;;21.70;15.67;;;1.40;91.40;;;-0.47;95.81;97179.47;4990282;28;20542;-77
2021/12/03 00:21:07;;;;;;;25.53;17.50;;;1.40;91.70;;;-0.14;95.61;97221.13;4999510;28;20452;-77
2021/12/03 00:23:36;;;;;;;21.03;15.53;;;1.40;92.10;;;-0.29;95.54;97200.56;5019067;28;20857;-79
2021/12/03 00:26:05;;;;;;;25.80;16.77;;;1.50;91.80;;;-0.31;95.37;97210.53;5018536;28;20459;-77
2021/12/03 00:28:33;;;;;;;26.90;16.60;;;1.50;91.50;;;-0.21;95.31;97236.09;5022652;28;20452;-77
2021/12/03 00:31:01;;;;;;;23.63;16.83;;;1.40;91.60;;;-0.09;95.58;97234.72;5004002;28;20452;-79
2021/12/03 00:33:30;;;;;;;26.10;15.50;;;1.50;91.90;;;-0.35;95.27;97209.19;5026927;28;20449;-79
2021/12/03 00:36:04;;;;;;;23.97;15.80;;;1.50;91.10;;;-0.27;95.75;97250.84;4999649;28;20557;-78
2021/12/03 00:38:35;;;;;;;23.50;15.63;;;1.40;91.60;;;-0.27;95.92;97242.88;5031577;28;21125;-77
2021/12/03 00:41:06;;;;;;;24.33;16.27;;;1.40;91.60;;;-0.34;96.07;97240.06;5013015;28;20467;-77
2021/12/03 00:43:33;;;;;;;28.30;16.57;;;1.40;91.70;;;-0.25;96.21;97258.63;5014061;28;20482;-77
2021/12/03 00:46:06;;;;;;;24.70;16.90;;;1.40;92.10;;;-0.22;95.65;97266.28;5017028;28;20496;-77
2021/12/03 00:48:34;;;;;;;25.57;17.50;;;1.40;92.10;;;-0.16;95.57;97269.09;4996888;28;20527;-77
2021/12/03 00:51:05;;;;;;;22.10;15.90;;;1.50;91.50;;;-0.25;95.87;97242.69;5034406;28;20468;-79
2021/12/03 00:53:32;;;;;;;22.90;16.30;;;1.50;92.30;;;-0.12;95.49;97269.59;5002217;28;20727;-79
2021/12/03 00:56:01;;;;;;;25.23;17.57;;;1.50;91.70;;;-0.07;96.43;97282.38;5017009;28;20460;-76
2021/12/03 00:58:31;;;;;;;28.10;19.73;;;1.50;92.20;;;0.08;95.03;97291.34;4996883;28;20972;-77
2021/12/03 01:00:58;;;;;;;22.83;18.00;;;1.60;91.70;;;-0.13;95.20;97275.91;5002786;28;20523;-78
2021/12/03 01:03:25;;;;;;;25.20;17.77;;;1.60;91.10;;;-0.24;95.89;97249.66;5015160;28;20455;-78
2021/12/03 01:05:52;;;;;;;25.63;17.40;;;1.60;91.60;;;-0.08;95.37;97284.19;5005567;28;20516;-77
2021/12/03 01:08:21;;;;;;;24.53;16.87;;;1.50;91.50;;;-0.24;95.71;97242.56;5015823;28;20962;-77
2021/12/03 01:10:49;;;;;;;25.50;16.87;;;1.60;91.80;;;0.13;94.91;97285.53;5004199;28;20531;-77
2021/12/03 01:13:16;;;;;;;25.77;17.67;;;1.70;91.50;;;-0.20;95.72;97273.06;5016391;28;20467;-76
2021/12/03 01:15:44;;;;;;;20.43;15.07;;;1.60;91.30;;;-0.24;96.49;97282.38;5016183;28;20464;-78
2021/12/03 01:18:12;;;;;;;21.87;15.47;;;1.40;91.80;;;-0.13;96.81;97301.66;4989917;28;20463;-76
2021/12/03 01:20:42;;;;;;;21.43;15.47;;;1.40;92.90;;;-0.05;95.89;97293.66;5002668;28;20471;-77
2021/12/03 01:23:12;;;;;;;18.00;15.00;;;1.50;92.60;;;-0.13;95.24;97277.75;4990343;28;20484;-78
2021/12/03 01:25:41;;;;;;;19.83;15.07;;;1.50;92.00;;;-0.35;95.63;97272.91;5013701;28;20824;-77
2021/12/03 01:28:09;;;;;;;18.80;13.80;;;1.40;91.40;;;-0.37;95.59;97253.66;5012254;28;20499;-77
2021/12/03 01:30:37;;;;;;;17.90;13.53;;;1.50;91.70;;;-0.26;95.89;97308.28;5014000;28;20459;-77
2021/12/03 01:33:06;;;;;;;18.97;13.97;;;1.40;91.50;;;-1.09;96.71;97195.81;4997732;28;20887;-77
2021/12/03 01:35:35;;;;;;;18.10;14.10;;;1.30;92.40;;;-0.41;96.77;97310.72;5013972;28;21044;-76
2021/12/03 01:38:03;;;;;;;19.17;14.03;;;1.20;92.90;;;-0.62;97.64;97298.75;5020016;28;20502;-78
2021/12/03 01:40:33;;;;;;;19.37;11.87;;;1.20;93.20;;;-0.74;97.53;97279.66;5016002;28;20558;-78
2021/12/03 01:43:04;;;;;;;18.37;12.53;;;1.10;93.60;;;-0.39;96.63;97326.50;4994867;28;20480;-77
2021/12/03 01:45:37;;;;;;;17.07;13.27;;;1.20;92.90;;;-0.64;96.48;97300.72;5012796;28;20483;-77
2021/12/03 01:48:05;;;;;;;16.93;12.50;;;1.20;92.60;;;-0.37;96.07;97332.47;4999240;28;20869;-77
2021/12/03 01:50:36;;;;;;;18.70;12.70;;;1.20;92.20;;;-0.50;96.42;97322.31;5013890;28;20469;-77
2021/12/03 01:53:04;;;;;;;16.60;11.60;;;1.20;91.80;;;-0.49;96.46;97323.97;5015562;28;20467;-78
2021/12/03 01:55:32;;;;;;;13.90;11.33;;;1.20;92.40;;;-0.36;96.15;97334.97;5002681;28;20534;-78
2021/12/03 01:57:59;;;;;;;17.60;12.40;;;1.20;93.00;;;-0.49;96.82;97334.59;5008230;28;20485;-77
2021/12/03 02:00:32;;;;;;;18.13;12.23;;;1.20;92.10;;;-0.63;96.94;97344.84;5001750;28;20556;-78
2021/12/03 02:03:01;;;;;;;17.30;11.80;;;1.10;92.50;;;-0.63;97.71;97342.19;4983365;28;20514;-77
2021/12/03 02:05:29;;;;;;;16.90;11.87;;;1.00;93.30;;;-0.62;97.40;97345.66;5017220;28;20514;-77
2021/12/03 02:07:56;;;;;;;18.63;12.47;;;1.00;93.10;;;-0.65;97.44;97344.19;5001694;28;20448;-78
2021/12/03 02:10:25;;;;;;;19.97;14.00;;;1.00;93.10;;;-0.79;97.05;97294.38;4999656;28;20455;-79
2021/12/03 02:12:53;;;;;;;17.10;12.67;;;1.10;93.10;;;-0.53;96.88;97333.25;4995232;28;20475;-78
2021/12/03 02:15:20;;;;;;;17.93;12.10;;;1.10;93.20;;;-0.64;96.78;97305.19;4996933;28;20917;-77
2021/12/03 02:17:49;;;;;;;17.20;11.33;;;1.10;92.60;;;-1.00;97.42;97274.41;4995196;28;20459;-77
2021/12/03 02:20:17;;;;;;;17.30;11.50;;;1.10;93.30;;;-0.61;97.73;97348.16;4984192;28;20556;-78
2021/12/03 02:22:47;;;;;;;16.47;12.70;;;1.10;93.10;;;-0.58;97.94;97342.53;5019152;28;20448;-77
2021/12/03 02:25:19;;;;;;;16.53;12.27;;;1.00;93.80;;;-0.49;97.27;97350.53;5017740;28;20456;-78
2021/12/03 02:27:50;;;;;;;16.50;12.20;;;1.10;93.90;;;-0.57;97.72;97333.56;5013642;28;20480;-78
2021/12/03 02:30:18;;;;;;;17.80;11.63;;;1.10;94.00;;;-0.34;96.72;97361.34;5008129;28;20527;-78
2021/12/03 02:32:46;;;;;;;14.10;11.57;;;1.20;93.50;;;-0.41;95.94;97334.59;5012792;28;20467;-78
2021/12/03 02:35:13;;;;;;;17.23;10.80;;;1.30;92.20;;;-0.23;96.34;97349.56;5003523;28;20448;-78
2021/12/03 02:37:42;;;;;;;21.80;12.33;;;1.30;92.70;;;-0.33;96.14;97347.91;5002295;28;20475;-78
2021/12/03 02:40:14;;;;;;;14.60;10.80;;;1.30;91.60;;;-0.43;95.63;97350.72;5001450;28;20487;-78
2021/12/03 02:42:42;;;;;;;15.00;11.77;;;1.20;92.00;;;-0.32;95.62;97365.50;5015935;28;20513;-78
2021/12/03 02:45:11;;;;;;;14.00;11.23;;;1.30;91.60;;;-0.64;95.05;97324.59;5013244;28;20451;-77
2021/12/03 02:47:38;;;;;;;19.43;10.90;;;1.30;91.20;;;-0.42;95.08;97338.25;5006053;28;20488;-77
2021/12/03 02:50:08;;;;;;;14.63;11.97;;;1.30;91.20;;;-0.34;95.35;97364.84;5011675;28;20471;-77
2021/12/03 02:52:36;;;;;;;14.83;11.53;;;1.30;91.10;;;-0.42;94.85;97362.16;4995429;28;20452;-78
2021/12/03 02:55:05;;;;;;;14.10;10.60;;;1.30;91.20;;;-0.38;95.35;97383.91;4982667;28;20467;-78
2021/12/03 02:57:34;;;;;;;17.10;12.60;;;1.30;91.00;;;-0.37;95.73;97373.13;5014406;28;20514;-78
2021/12/03 03:00:02;;;;;;;18.43;13.07;;;1.30;91.20;;;-0.73;96.19;97333.53;4990507;28;20956;-77
2021/12/03 03:02:29;;;;;;;16.60;12.30;;;1.20;91.50;;;-0.70;95.36;97317.28;4998845;28;20979;-78
2021/12/03 03:04:56;;;;;;;17.60;12.90;;;1.30;91.80;;;-0.50;96.06;97370.09;4998442;28;20492;-76
2021/12/03 03:07:25;;;;;;;17.87;12.87;;;1.20;91.70;;;-0.44;95.26;97356.16;5010357;28;20459;-75
2021/12/03 03:09:52;;;;;;;18.37;13.97;;;1.20;91.20;;;-0.40;94.99;97349.53;4992036;28;21012;-76
2021/12/03 03:12:19;;;;;;;15.67;11.93;;;1.30;91.50;;;-0.41;95.07;97347.06;5008449;28;20515;-76
2021/12/03 03:14:53;;;;;;;20.20;12.53;;;1.30;90.90;;;-0.19;94.78;97374.81;5012542;28;20539;-75
2021/12/03 03:17:21;;;;;;;18.80;13.40;;;1.40;90.70;;;-0.35;94.14;97384.41;4998589;28;20460;-77
2021/12/03 03:19:48;;;;;;;21.53;13.60;;;1.30;90.20;;;-0.58;94.58;97361.09;5003037;28;20471;-77
2021/12/03 03:22:16;;;;;;;16.60;12.40;;;1.20;90.40;;;-0.57;95.24;97386.66;4990582;28;20975;-77
2021/12/03 03:24:43;;;;;;;18.00;13.07;;;1.10;90.60;;;-0.53;95.28;97399.59;4996063;28;21222;-77
2021/12/03 03:27:11;;;;;;;19.73;13.07;;;1.10;91.20;;;-0.65;94.79;97373.38;5012460;28;20460;-76
2021/12/03 03:29:39;;;;;;;18.20;12.67;;;1.10;91.10;;;-0.58;94.82;97400.09;5004879;28;20484;-77
2021/12/03 03:32:09;;;;;;;19.03;14.20;;;1.00;90.60;;;-0.48;94.79;97399.97;4996944;28;20554;-78
2021/12/03 03:34:37;;;;;;;21.27;15.13;;;1.10;91.20;;;-0.57;95.13;97407.88;5007232;28;20530;-78
2021/12/03 03:37:05;;;;;;;22.47;13.53;;;1.10;90.70;;;-0.67;94.76;97393.91;5021063;28;20491;-78
2021/12/03 03:39:32;;;;;;;20.53;15.00;;;1.00;90.90;;;-0.41;94.05;97410.78;4997991;28;20447;-77
2021/12/03 03:42:00;;;;;;;18.40;13.77;;;1.10;90.60;;;-0.37;94.16;97393.53;4997425;28;20878;-77
2021/12/03 03:44:27;;;;;;;18.10;12.93;;;1.20;90.20;;;-0.31;94.26;97420.25;5000309;28;20460;-77
2021/12/03 03:46:55;;;;;;;22.43;15.13;;;1.30;90.40;;;-0.34;93.64;97427.72;4994364;28;20505;-77
2021/12/03 03:49:25;;;;;;;19.20;13.60;;;1.30;89.80;;;-0.60;93.25;97376.34;5012778;28;20514;-77
2021/12/03 03:51:53;;;;;;;18.87;13.63;;;1.30;88.90;;;-0.32;93.30;97429.22;5008019;28;20502;-78
2021/12/03 03:54:20;;;;;;;18.43;12.73;;;1.30;88.40;;;-0.19;92.82;97422.63;4996160;28;20509;-77
2021/12/03 03:56:48;;;;;;;19.60;13.60;;;1.40;88.20;;;-0.45;92.51;97404.94;4992127;28;20444;-77
2021/12/03 03:59:17;;;;;;;17.93;13.07;;;1.40;87.20;;;-0.25;92.33;97417.94;5010477;28;20470;-76
2021/12/03 04:01:44;;;;;;;19.30;12.47;;;1.30;87.80;;;-0.24;92.45;97427.56;5013008;28;20476;-77
2021/12/03 04:04:11;;;;;;;19.60;12.90;;;1.40;87.30;;;-0.35;92.54;97410.13;5007253;28;20447;-78
2021/12/03 04:06:40;;;;;;;20.47;13.87;;;1.40;87.20;;;-0.58;92.12;97382.31;5004711;28;21248;-77
2021/12/03 04:09:09;;;;;;;21.83;13.30;;;1.40;86.00;;;-0.29;92.12;97441.34;5010215;28;20455;-77
2021/12/03 04:11:38;;;;;;;22.27;14.97;;;1.30;86.50;;;-0.47;92.65;97444.91;4997079;28;20460;-78
2021/12/03 04:14:06;;;;;;;17.60;13.90;;;1.20;86.90;;;-0.52;93.37;97443.75;5010806;28;20459;-78
2021/12/03 04:16:33;;;;;;;20.13;14.87;;;1.10;88.30;;;-0.41;93.82;97450.59;5012749;28;20549;-78
2021/12/03 04:19:01;;;;;;;21.30;14.13;;;1.20;89.20;;;-0.41;93.00;97447.94;4999581;28;20506;-77
2021/12/03 04:21:28;;;;;;;21.60;14.60;;;1.20;88.80;;;-0.48;93.76;97453.03;5012279;28;20465;-75
2021/12/03 04:23:57;;;;;;;20.90;13.73;;;1.20;88.40;;;-0.58;93.58;97437.25;5017454;28;20539;-75
2021/12/03 04:26:24;;;;;;;20.80;14.00;;;1.20;88.90;;;-0.39;92.73;97435.31;4996486;28;20452;-77
2021/12/03 04:28:51;;;;;;;16.10;12.33;;;1.30;87.70;;;-0.52;91.09;97427.81;5010105;28;20487;-77
2021/12/03 04:31:18;;;;;;;17.13;12.47;;;1.30;85.40;;;-0.63;91.81;97435.06;5009617;28;20546;-78
2021/12/03 04:33:45;;;;;;;16.43;12.70;;;1.20;85.70;;;-0.46;91.40;97448.41;4994217;28;20466;-76
2021/12/03 04:36:13;;;;;;;18.43;13.90;;;1.30;85.10;;;-0.54;91.85;97445.69;4995532;28;20800;-78
2021/12/03 04:38:40;;;;;;;23.37;13.80;;;1.20;85.60;;;-0.54;91.72;97466.94;5011256;28;20452;-76
2021/12/03 04:41:09;;;;;;;18.70;13.97;;;1.20;85.50;;;-0.59;92.03;97473.56;5018479;28;20577;-77
2021/12/03 04:43:36;;;;;;;19.53;13.40;;;1.10;85.90;;;-0.44;91.00;97483.56;5010862;28;20452;-77
2021/12/03 04:46:03;;;;;;;18.90;12.50;;;1.10;84.70;;;-0.58;91.36;97480.53;5015149;28;20552;-77
2021/12/03 04:48:31;;;;;;;18.67;13.27;;;1.10;84.30;;;-0.51;91.25;97479.91;5011926;28;20541;-76
2021/12/03 04:50:58;;;;;;;18.17;12.10;;;1.10;84.60;;;-0.50;89.02;97474.44;5016094;28;20491;-76
2021/12/03 04:53:25;;;;;;;15.90;11.33;;;1.20;81.70;;;-0.53;89.33;97487.16;5010336;28;20484;-78
2021/12/03 04:55:53;;;;;;;16.73;11.90;;;1.10;81.70;;;-0.59;89.24;97484.16;4998009;28;20460;-78
2021/12/03 04:58:22;;;;;;;15.73;12.30;;;1.10;81.60;;;-0.71;89.46;97472.16;4987607;28;20463;-78
2021/12/03 05:00:52;;;;;;;16.10;12.90;;;1.10;82.00;;;-0.60;88.94;97477.19;4999336;28;20546;-77
2021/12/03 05:03:23;;;;;;;17.77;12.10;;;1.20;81.30;;;-0.60;87.68;97485.16;5000506;28;20454;-77
2021/12/03 05:05:53;;;;;;;16.47;12.20;;;1.20;79.70;;;-0.38;88.18;97509.50;5017016;28;20448;-78
2021/12/03 05:08:20;;;;;;;16.33;11.20;;;1.20;80.00;;;-0.51;89.25;97501.97;5016254;28;20451;-77
2021/12/03 05:10:48;;;;;;;18.20;12.20;;;1.20;80.70;;;-0.62;89.76;97504.88;5020911;28;20458;-77
2021/12/03 05:13:18;;;;;;;16.37;11.30;;;1.10;81.50;;;-0.50;90.11;97513.41;5006679;28;20490;-77
2021/12/03 05:15:47;;;;;;;14.63;11.10;;;1.10;82.20;;;-0.40;88.85;97516.78;5000656;28;20474;-78
2021/12/03 05:18:16;;;;;;;12.60;10.10;;;1.10;81.00;;;-0.38;85.66;97521.94;5001052;28;20487;-77
2021/12/03 05:20:48;;;;;;;16.43;10.17;;;1.20;78.00;;;-0.62;85.51;97503.06;5013887;28;21013;-78
2021/12/03 05:23:16;;;;;;;12.90;8.70;;;1.20;76.90;;;-0.52;85.34;97529.50;5008292;28;20457;-77
2021/12/03 05:25:43;;;;;;;13.70;9.70;;;1.20;77.10;;;-0.45;86.38;97546.47;5005258;28;20551;-77
2021/12/03 05:28:11;;;;;;;12.97;9.00;;;1.10;77.70;;;-0.57;85.81;97556.50;5010615;28;20498;-77
2021/12/03 05:30:39;;;;;;;12.33;9.37;;;1.10;77.00;;;-0.54;85.18;97559.81;5014259;28;20525;-77
2021/12/03 05:33:09;;;;;;;13.37;9.00;;;1.10;76.80;;;-0.70;86.09;97556.06;5022638;28;20494;-77
2021/12/03 05:35:37;;;;;;;15.30;11.03;;;1.00;77.00;;;-0.62;86.46;97553.47;5002181;28;20491;-77
2021/12/03 05:38:05;;;;;;;13.20;10.00;;;1.00;77.40;;;-0.70;86.93;97565.88;4993412;28;20518;-76
2021/12/03 05:40:33;;;;;;;15.03;11.23;;;1.00;78.10;;;-0.41;87.17;97559.41;5005584;28;20518;-76
2021/12/03 05:43:00;;;;;;;13.47;10.50;;;1.20;80.00;;;-0.36;87.73;97567.75;5005678;28;20531;-81
2021/12/03 05:45:30;;;;;;;16.67;12.70;;;1.20;79.50;;;-0.16;89.85;97576.31;5021877;28;20927;-78
2021/12/03 05:47:58;;;;;;;16.07;10.87;;;1.30;83.60;;;-0.48;86.97;97564.53;4997104;28;21372;-76
2021/12/03 05:50:27;;;;;;;12.57;10.40;;;1.20;78.70;;;-0.31;86.75;97578.72;4999453;28;20514;-79
2021/12/03 05:52:57;;;;;;;13.20;9.60;;;1.30;78.90;;;-0.30;87.51;97575.09;4988624;28;20547;-78
2021/12/03 05:55:24;;;;;;;11.30;8.60;;;1.20;79.90;;;-0.54;84.71;97581.06;4996037;28;20699;-77
2021/12/03 05:57:51;;;;;;;11.73;8.60;;;1.20;76.00;;;-0.61;85.80;97571.06;5013600;28;20510;-77
2021/12/03 06:00:24;;;;;;;13.43;9.27;;;1.10;76.90;;;-0.64;85.86;97591.78;5019993;28;20470;-79
2021/12/03 06:02:52;;;;;;;14.53;9.97;;;1.10;77.30;;;-0.41;85.31;97597.41;5019655;28;20476;-78
2021/12/03 06:05:21;;;;;;;13.57;9.77;;;1.20;77.80;;;-0.25;87.56;97574.59;5023455;28;20467;-81
2021/12/03 06:07:50;;;;;;;12.90;9.13;;;1.40;82.10;;;-0.36;85.32;97587.16;5002706;28;20468;-78
2021/12/03 06:10:17;;;;;;;13.07;9.90;;;1.30;77.40;;;-0.59;85.10;97547.84;5027228;28;20452;-76
2021/12/03 06:12:45;;;;;;;13.10;9.97;;;1.30;77.60;;;-0.45;85.14;97614.63;5021970;28;20459;-76
2021/12/03 06:15:12;;;;;;;14.67;9.80;;;1.20;76.60;;;-0.38;84.20;97610.38;5017102;28;20521;-77
2021/12/03 06:17:39;;;;;;;11.77;9.10;;;1.20;76.10;;;-0.81;85.73;97596.13;5000541;28;20502;-77
2021/12/03 06:20:09;;;;;;;12.90;9.20;;;1.00;76.80;;;-0.63;85.05;97620.81;5023554;28;20460;-76
2021/12/03 06:22:36;;;;;;;11.50;9.50;;;1.00;77.10;;;-0.81;85.38;97620.81;4997172;28;20514;-77
2021/12/03 06:25:07;;;;;;;12.30;8.80;;;0.80;76.80;;;-0.72;86.44;97616.41;5019222;28;20498;-78
2021/12/03 06:27:34;;;;;;;12.20;9.00;;;0.90;78.20;;;-0.88;85.44;97622.44;4990516;28;21027;-70
2021/12/03 06:30:03;;;;;;;10.90;9.10;;;0.80;76.60;;;-0.84;86.29;97614.97;4986762;28;21069;-69
2021/12/03 06:32:30;;;;;;;12.10;9.63;;;0.80;77.40;;;-0.78;86.43;97622.34;5001021;28;20588;-70
2021/12/03 06:34:57;;;;;;;14.90;10.30;;;0.80;78.00;;;-0.99;86.29;97581.03;5007038;28;20540;-69
2021/12/03 06:37:24;;;;;;;12.40;9.30;;;0.80;78.50;;;-0.66;86.11;97630.91;5005025;28;20549;-70
2021/12/03 06:39:51;;;;;;;14.90;10.97;;;0.90;77.80;;;-0.60;85.88;97638.25;4991448;28;21014;-69
2021/12/03 06:42:19;;;;;;;10.30;8.73;;;1.00;77.80;;;-0.66;86.57;97634.41;5007028;28;20493;-69
2021/12/03 06:44:46;;;;;;;11.60;9.40;;;1.00;77.60;;;-0.76;86.62;97636.28;5009336;28;20478;-70
2021/12/03 06:47:13;;;;;;;12.73;9.97;;;0.90;77.30;;;-0.83;86.91;97636.06;5004600;28;20607;-70
2021/12/03 06:49:40;;;;;;;13.80;9.70;;;0.80;78.00;;;-0.95;87.30;97632.81;5007529;28;20499;-70
2021/12/03 06:52:11;;;;;;;17.70;11.10;;;0.70;78.30;;;-1.13;87.51;97638.09;4993106;28;21009;-70
2021/12/03 06:54:38;;;;;;;10.73;8.93;;;0.60;78.50;;;-1.20;86.74;97653.78;5002018;28;20473;-70
2021/12/03 06:57:08;;;;;;;16.40;11.03;;;0.40;77.70;;;-1.30;87.49;97645.03;5003747;28;20985;-71
2021/12/03 06:59:37;;;;;;;14.30;10.50;;;0.40;78.40;;;-1.34;88.78;97656.94;5005270;28;21165;-71
2021/12/03 07:02:05;;;;;;;13.97;10.17;;;0.30;79.60;;;-1.49;89.83;97657.44;4984351;28;20473;-69
2021/12/03 07:04:32;;;;;;;13.93;10.43;;;0.20;81.30;;;-1.42;89.99;97665.63;5004340;28;21007;-70
2021/12/03 07:07:00;;;;;;;12.03;10.37;;;0.20;82.40;;;-1.50;89.51;97670.84;5007569;28;20465;-69
2021/12/03 07:09:27;;;;;;;15.30;11.53;;;0.20;82.10;;;-1.57;89.54;97670.59;5009250;28;20495;-70
2021/12/03 07:11:54;;;;;;;14.00;11.00;;;0.10;81.50;;;-1.46;89.35;97674.88;5003962;28;20546;-70
2021/12/03 07:14:21;;;;;;;16.63;10.17;;;0.10;81.80;;;-1.40;89.43;97676.91;5003212;28;20538;-67
2021/12/03 07:16:49;;;;;;;15.17;10.87;;;0.10;82.30;;;-1.36;89.41;97683.59;5003492;28;20480;-67
2021/12/03 07:19:16;;;;;;;19.80;17.70;;;0.20;82.30;;;-1.36;89.62;97685.41;5003768;28;20482;-72
2021/12/03 07:21:43;;;;;;;15.17;10.07;;;0.20;82.60;;;-1.25;89.57;97685.22;5004370;28;20594;-68
2021/12/03 07:24:10;;;;;;;14.57;10.90;;;0.30;83.20;;;-0.91;88.24;97697.84;5008060;28;20499;-69
2021/12/03 07:26:37;;;;;;;13.93;10.00;;;0.50;81.20;;;-0.87;87.78;97693.06;4978545;28;21151;-69
2021/12/03 07:29:04;;;;;;;15.23;10.03;;;0.70;79.80;;;-0.76;86.66;97697.31;4991502;28;20483;-69
2021/12/03 07:31:31;;;;;;;11.90;10.33;;;0.80;78.90;;;-0.62;86.06;97696.78;5010402;28;20456;-69
2021/12/03 07:34:00;;;;;;;11.30;9.27;;;0.90;78.10;;;-0.50;84.48;97691.25;4984812;28;20504;-69
2021/12/03 07:36:27;;;;;;;12.90;8.80;;;1.10;77.00;;;-0.37;83.54;97710.28;4986251;28;20518;-70
2021/12/03 07:38:54;;;;;;;11.73;10.17;;;1.20;75.60;;;-0.57;84.13;97702.47;5007348;28;20455;-68
2021/12/03 07:41:21;;;;;;;13.57;9.97;;;1.20;75.80;;;-0.48;84.23;97715.81;4997201;28;20472;-68
2021/12/03 07:43:48;;;;;;;15.60;10.40;;;1.20;75.70;;;-0.50;84.63;97723.94;4988174;28;20568;-68
2021/12/03 07:46:16;;;;;;;14.87;10.80;;;1.20;76.00;;;-0.46;84.41;97727.94;4989707;28;20491;-69
2021/12/03 07:48:46;;;;;;;13.37;9.83;;;1.20;76.20;;;-0.21;83.99;97730.00;5001622;28;20990;-69
2021/12/03 07:51:15;;;;;;;12.80;9.43;;;1.30;75.90;;;-0.04;82.98;97725.63;4984154;28;20530;-69
2021/12/03 07:53:42;;;;;;;12.23;9.57;;;1.40;75.60;;;-0.11;82.72;97730.72;4998671;28;20828;-69
2021/12/03 07:56:09;;;;;;;13.63;10.30;;;1.50;75.10;;;-0.11;83.42;97740.53;5001985;28;20468;-70
2021/12/03 07:58:37;;;;;;;10.93;8.33;;;1.50;75.30;;;-0.09;82.55;97744.66;5003271;28;20464;-69
2021/12/03 08:01:04;;;;;;;10.70;9.30;;;1.50;74.70;;;-0.04;82.63;97737.09;5003907;28;20829;-68
2021/12/03 08:03:32;;;;;;;10.57;8.60;;;1.50;74.30;;;0.08;81.38;97752.78;4998751;28;20787;-74
2021/12/03 08:06:05;;;;;;;10.47;8.60;;;1.60;73.60;;;0.12;81.09;97741.66;4982117;28;20948;-68
2021/12/03 08:08:36;;;;;;;11.30;8.40;;;1.60;73.00;;;0.16;81.33;97742.19;4977019;28;20471;-69
2021/12/03 08:11:03;;;;;;;10.23;8.33;;;1.70;73.20;;;0.22;80.44;97741.56;4985174;28;20820;-68
2021/12/03 08:13:31;;;;;;;10.60;8.37;;;1.80;72.80;;;0.37;80.47;97746.31;5003377;28;20468;-69
2021/12/03 08:15:59;;;;;;;10.33;8.00;;;1.90;72.60;;;0.30;79.26;97747.94;5005439;28;21859;-68
2021/12/03 08:18:26;;;;;;;12.00;9.40;;;1.90;71.00;;;0.24;80.04;97758.22;5006760;28;20506;-69
2021/12/03 08:20:53;;;;;;;10.00;8.23;;;1.80;71.40;;;0.05;79.55;97756.59;5001116;28;20530;-69
2021/12/03 08:23:21;;;;;;;11.80;7.80;;;1.70;70.70;;;0.03;80.71;97750.59;5000014;28;20708;-69
2021/12/03 08:25:49;;;;;;;14.23;9.93;;;1.70;71.50;;;0.16;80.77;97760.81;4998760;28;20535;-69
2021/12/03 08:28:16;;;;;;;9.93;8.80;;;1.70;72.00;;;0.13;80.98;97756.63;5002169;28;20467;-70
2021/12/03 08:30:43;;;;;;;11.33;8.77;;;1.80;72.10;;;0.23;80.45;97753.88;5004174;28;20468;-68
2021/12/03 08:33:10;;;;;;;10.73;8.40;;;1.80;72.00;;;0.32;79.86;97751.28;5004016;28;20454;-68
2021/12/03 08:35:37;;;;;;;12.40;9.23;;;1.90;71.70;;;0.45;79.89;97751.69;5002075;28;20534;-67
2021/12/03 08:38:04;;;;;;;11.60;8.97;;;1.90;71.70;;;0.47;78.91;97763.00;4984917;28;20459;-69
2021/12/03 08:40:32;;;;;;;11.77;9.00;;;2.00;70.80;;;0.46;77.80;97763.97;4983075;28;20551;-69
2021/12/03 08:43:00;;;;;;;11.10;8.60;;;2.00;69.30;;;0.41;78.14;97766.28;5004992;28;20480;-69
2021/12/03 08:45:28;;;;;;;15.20;9.97;;;2.00;69.10;;;0.42;77.74;97765.28;5001635;28;21026;-68
2021/12/03 08:47:58;;;;;;;14.50;9.73;;;2.00;68.80;;;0.71;75.53;97761.47;5001080;28;20543;-69
2021/12/03 08:50:35;;;;;;;10.53;9.00;;;2.10;67.30;;;0.73;74.60;97759.47;5001102;28;20460;-68
2021/12/03 08:53:21;;;;;;;12.00;8.73;;;2.20;65.60;;;0.47;74.73;97763.00;5003420;28;20455;-68
2021/12/03 08:55:47;;;;;;;11.67;9.20;;;2.20;65.40;;;0.49;74.71;97758.34;5000367;28;20443;-68
2021/12/03 08:58:17;;;;;;;14.83;8.87;;;2.10;65.10;;;0.64;73.92;97761.28;5000180;28;20491;-68
2021/12/03 09:00:44;;;;;;;14.67;9.20;;;2.10;64.50;;;0.65;73.20;97756.75;4995952;28;20467;-69
2021/12/03 09:03:11;;;;;;;9.93;8.80;;;2.20;63.60;;;0.69;72.85;97768.78;5002564;28;20485;-69
2021/12/03 09:05:39;;;;;;;9.40;8.50;;;2.20;63.40;;;0.84;71.88;97766.34;4984827;28;20464;-68
2021/12/03 09:08:06;;;;;;;11.23;9.47;;;2.30;62.70;;;0.78;72.42;97773.13;5002888;28;20464;-68
2021/12/03 09:10:34;;;;;;;12.67;10.03;;;2.30;62.60;;;0.83;73.10;97770.00;4994263;28;20491;-67
2021/12/03 09:13:01;;;;;;;11.07;9.43;;;2.40;63.00;;;0.83;72.11;97775.31;4999039;28;20554;-68
2021/12/03 09:15:35;;;;;;;10.30;8.43;;;2.40;62.20;;;0.76;72.06;97766.28;5000585;28;20455;-68
2021/12/03 09:18:13;;;;;;;9.90;8.40;;;2.40;62.00;;;0.82;72.71;97777.13;4986150;28;21019;-69
2021/12/03 09:20:51;;;;;;;10.73;9.67;;;2.40;62.40;;;0.88;72.96;97770.34;4978607;28;20525;-67
2021/12/03 09:23:23;;;;;;;10.07;8.77;;;2.50;62.90;;;0.69;71.75;97748.31;5000300;28;21076;-69
2021/12/03 09:25:53;;;;;;;10.23;8.90;;;2.40;61.50;;;0.83;72.07;97781.47;4986118;28;20514;-68
2021/12/03 09:28:25;;;;;;;11.70;9.03;;;2.40;62.00;;;0.67;72.78;97776.06;5006007;28;20515;-67
2021/12/03 09:30:54;;;;;;;11.80;9.60;;;2.30;61.80;;;0.53;72.57;97778.34;5009225;28;20470;-68
2021/12/03 09:33:25;;;;;;;9.30;7.73;;;2.20;61.70;;;0.50;72.66;97785.78;5008010;28;20463;-68
2021/12/03 09:35:55;;;;;;;7.80;7.00;;;2.20;61.70;;;0.49;71.80;97789.44;5004521;28;20518;-66
2021/12/03 09:38:25;;;;;;;8.93;7.70;;;2.10;60.80;;;0.44;72.15;97786.38;5001252;28;21484;-66
2021/12/03 09:40:52;;;;;;;10.17;9.03;;;2.10;60.80;;;0.41;72.95;97776.94;5008313;28;20983;-69
2021/12/03 09:43:19;;;;;;;10.93;9.37;;;2.00;61.50;;;0.52;72.89;97768.66;5002280;28;20598;-69
2021/12/03 09:45:55;;;;;;;12.17;9.53;;;2.20;62.00;;;0.85;72.77;97775.97;5006756;28;20495;-68
2021/12/03 09:48:34;;;;;;;10.43;8.47;;;2.30;62.10;;;0.77;71.60;97767.97;4993591;28;20499;-68
2021/12/03 09:51:01;;;;;;;9.67;8.57;;;2.40;60.90;;;0.61;72.73;97763.41;5012594;28;20534;-71
2021/12/03 09:53:49;;;;;;;10.50;9.50;;;2.30;61.50;;;0.56;73.17;97764.72;4997426;28;20547;-70
2021/12/03 09:56:17;;;;;;;13.43;10.20;;;2.20;61.90;;;0.65;72.41;97751.44;5008646;28;20470;-73
2021/12/03 10:01:46;;;;;;;10.50;9.40;;;2.20;61.70;;;0.76;72.88;97753.84;4925297;29;20989;-72
2021/12/03 10:04:40;;;;;;;12.43;9.70;;;2.30;62.00;;;0.88;72.30;97757.03;4946227;28;20528;-69
2021/12/03 10:15:23;;;;;;;13.43;10.50;;;2.70;61.20;;;1.18;71.54;97754.00;4988357;28;20459;-68
2021/12/03 10:18:00;;;;;;;11.90;9.97;;;2.70;61.20;;;0.90;71.33;97759.56;5008587;28;21497;-68
2021/12/03 10:20:33;;;;;;;11.90;8.17;;;2.60;60.10;;;0.95;70.43;97747.44;5001254;28;22908;-68
2021/12/03 10:35:25;;;;;;;8.80;7.53;;;2.70;57.10;;;0.84;68.83;97721.97;4995949;28;20448;-75
2021/12/03 10:41:24;;;;;;;9.47;7.70;;;2.50;58.70;;;0.78;70.53;97727.09;4944897;28;20470;-70
2021/12/03 10:46:58;;;;;;;16.00;9.90;;;2.60;59.30;;;1.15;70.15;97730.38;4997270;28;20615;-69
2021/12/03 10:49:42;;;;;;;10.00;8.20;;;2.70;59.40;;;1.47;69.49;97739.44;4985545;28;20476;-68
2021/12/03 10:52:26;;;;;;;12.60;7.93;;;2.90;59.10;;;1.37;69.07;97745.72;5002899;28;20462;-68
2021/12/03 11:18:16;;;;;;;6.93;5.70;;;3.00;56.10;;;1.29;66.06;97716.44;5101938;27;20590;-74